sensor_id;sensor_type;location;lat;lon;timestamp;temperature;humidity
4279;DHT22;2153;47.744;10.580;2022-11-15T00:00:51;1.50;99.90
4279;DHT22;2153;47.744;10.580;2022-11-15T00:03:20;1.50;99.90
4279;DHT22;2153;47.744;10.580;2022-11-15T00:05:47;1.50;99.90
4279;DHT22;2153;47.744;10.580;2022-11-15T00:08:15;1.50;99.90
4279;DHT22;2153;47.744;10.580;2022-11-15T00:10:42;1.50;99.90
4279;DHT22;2153;47.744;10.580;2022-11-15T00:13:10;1.50;99.90
4279;DHT22;2153;47.744;10.580;2022-11-15T00:15:40;1.50;99.90
4279;DHT22;2153;47.744;10.580;2022-11-15T00:18:12;1.50;99.90
4279;DHT22;2153;47.744;10.580;2022-11-15T00:20:39;1.40;99.90
4279;DHT22;2153;47.744;10.580;2022-11-15T00:23:06;1.30;99.90
4279;DHT22;2153;47.744;10.580;2022-11-15T00:25:33;1.20;99.90
4279;DHT22;2153;47.744;10.580;2022-11-15T00:28:00;1.10;99.90
4279;DHT22;2153;47.744;10.580;2022-11-15T00:30:27;1.10;99.90
4279;DHT22;2153;47.744;10.580;2022-11-15T00:32:56;1.10;99.90
4279;DHT22;2153;47.744;10.580;2022-11-15T00:35:22;1.10;99.90
4279;DHT22;2153;47.744;10.580;2022-11-15T00:37:49;1.20;99.90
4279;DHT22;2153;47.744;10.580;2022-11-15T00:40:16;1.20;99.90
4279;DHT22;2153;47.744;10.580;2022-11-15T00:42:43;1.30;99.90
4279;DHT22;2153;47.744;10.580;2022-11-15T00:45:10;1.30;99.90
4279;DHT22;2153;47.744;10.580;2022-11-15T00:47:37;1.20;99.90
4279;DHT22;2153;47.744;10.580;2022-11-15T00:50:05;1.10;99.90
4279;DHT22;2153;47.744;10.580;2022-11-15T00:52:32;1.10;99.90
4279;DHT22;2153;47.744;10.580;2022-11-15T00:54:59;1.10;99.90
4279;DHT22;2153;47.744;10.580;2022-11-15T00:57:26;1.10;99.90
4279;DHT22;2153;47.744;10.580;2022-11-15T00:59:53;1.20;99.90
4279;DHT22;2153;47.744;10.580;2022-11-15T01:02:19;1.20;99.90
4279;DHT22;2153;47.744;10.580;2022-11-15T01:04:46;1.00;99.90
4279;DHT22;2153;47.744;10.580;2022-11-15T01:07:15;0.80;99.90
4279;DHT22;2153;47.744;10.580;2022-11-15T01:09:42;0.70;99.90
4279;DHT22;2153;47.744;10.580;2022-11-15T01:12:09;0.70;99.90
4279;DHT22;2153;47.744;10.580;2022-11-15T01:14:35;0.70;99.90
4279;DHT22;2153;47.744;10.580;2022-11-15T01:17:02;0.80;99.90
4279;DHT22;2153;47.744;10.580;2022-11-15T01:19:29;0.90;99.90
4279;DHT22;2153;47.744;10.580;2022-11-15T01:21:56;0.90;99.90
4279;DHT22;2153;47.744;10.580;2022-11-15T01:24:24;0.90;99.90
4279;DHT22;2153;47.744;10.580;2022-11-15T01:26:51;1.00;99.90
4279;DHT22;2153;47.744;10.580;2022-11-15T01:29:17;1.00;99.90
4279;DHT22;2153;47.744;10.580;2022-11-15T01:31:44;0.90;99.90
4279;DHT22;2153;47.744;10.580;2022-11-15T01:34:12;0.90;99.90
4279;DHT22;2153;47.744;10.580;2022-11-15T01:36:40;0.90;99.90
4279;DHT22;2153;47.744;10.580;2022-11-15T01:39:08;0.90;99.90
4279;DHT22;2153;47.744;10.580;2022-11-15T01:41:36;0.90;99.90
4279;DHT22;2153;47.744;10.580;2022-11-15T01:47:20;0.90;99.90
4279;DHT22;2153;47.744;10.580;2022-11-15T01:49:52;0.90;99.90
4279;DHT22;2153;47.744;10.580;2022-11-15T01:52:24;0.90;99.90
4279;DHT22;2153;47.744;10.580;2022-11-15T01:54:56;0.90;99.90
4279;DHT22;2153;47.744;10.580;2022-11-15T01:57:26;0.90;99.90
4279;DHT22;2153;47.744;10.580;2022-11-15T01:59:53;0.80;99.90
4279;DHT22;2153;47.744;10.580;2022-11-15T02:02:20;0.70;99.90
4279;DHT22;2153;47.744;10.580;2022-11-15T02:04:47;0.70;99.90
4279;DHT22;2153;47.744;10.580;2022-11-15T02:07:16;0.70;99.90
4279;DHT22;2153;47.744;10.580;2022-11-15T02:09:44;0.70;99.90
4279;DHT22;2153;47.744;10.580;2022-11-15T02:12:15;0.70;99.90
4279;DHT22;2153;47.744;10.580;2022-11-15T02:14:47;0.70;99.90
4279;DHT22;2153;47.744;10.580;2022-11-15T02:17:31;0.50;99.90
4279;DHT22;2153;47.744;10.580;2022-11-15T02:20:30;0.50;99.90
4279;DHT22;2153;47.744;10.580;2022-11-15T02:23:17;0.40;99.90
4279;DHT22;2153;47.744;10.580;2022-11-15T02:26:00;0.50;99.90
4279;DHT22;2153;47.744;10.580;2022-11-15T02:28:48;0.40;99.90
4279;DHT22;2153;47.744;10.580;2022-11-15T02:31:22;0.40;99.90
4279;DHT22;2153;47.744;10.580;2022-11-15T02:33:57;0.40;99.90
4279;DHT22;2153;47.744;10.580;2022-11-15T02:36:36;0.40;99.90
4279;DHT22;2153;47.744;10.580;2022-11-15T02:39:11;0.40;99.90
4279;DHT22;2153;47.744;10.580;2022-11-15T02:41:45;0.30;99.90
4279;DHT22;2153;47.744;10.580;2022-11-15T02:44:17;0.40;99.90
4279;DHT22;2153;47.744;10.580;2022-11-15T02:46:49;0.30;99.90
4279;DHT22;2153;47.744;10.580;2022-11-15T02:49:35;0.30;99.90
4279;DHT22;2153;47.744;10.580;2022-11-15T02:52:03;0.40;99.90
4279;DHT22;2153;47.744;10.580;2022-11-15T02:54:31;0.40;99.90
4279;DHT22;2153;47.744;10.580;2022-11-15T02:57:02;0.40;99.90
4279;DHT22;2153;47.744;10.580;2022-11-15T03:00:06;0.40;99.90
4279;DHT22;2153;47.744;10.580;2022-11-15T03:02:46;0.40;99.90
4279;DHT22;2153;47.744;10.580;2022-11-15T03:05:24;0.20;99.90
4279;DHT22;2153;47.744;10.580;2022-11-15T03:07:59;0.20;99.90
4279;DHT22;2153;47.744;10.580;2022-11-15T03:10:34;0.10;99.90
4279;DHT22;2153;47.744;10.580;2022-11-15T03:13:10;0.20;99.90
4279;DHT22;2153;47.744;10.580;2022-11-15T03:15:44;0.20;99.90
4279;DHT22;2153;47.744;10.580;2022-11-15T03:18:20;0.20;99.90
4279;DHT22;2153;47.744;10.580;2022-11-15T03:20:48;0.20;99.90
4279;DHT22;2153;47.744;10.580;2022-11-15T03:23:16;0.10;99.90
4279;DHT22;2153;47.744;10.580;2022-11-15T03:25:47;0.10;99.90
4279;DHT22;2153;47.744;10.580;2022-11-15T03:28:18;0.10;99.90
4279;DHT22;2153;47.744;10.580;2022-11-15T03:30:48;0.10;99.90
4279;DHT22;2153;47.744;10.580;2022-11-15T03:33:18;0.20;99.90
4279;DHT22;2153;47.744;10.580;2022-11-15T03:35:47;0.20;99.90
4279;DHT22;2153;47.744;10.580;2022-11-15T03:38:17;0.20;99.90
4279;DHT22;2153;47.744;10.580;2022-11-15T03:40:49;0.20;99.90
4279;DHT22;2153;47.744;10.580;2022-11-15T03:43:24;0.20;99.90
4279;DHT22;2153;47.744;10.580;2022-11-15T03:45:58;0.20;99.90
4279;DHT22;2153;47.744;10.580;2022-11-15T03:48:33;0.20;99.90
4279;DHT22;2153;47.744;10.580;2022-11-15T03:51:01;0.20;99.90
4279;DHT22;2153;47.744;10.580;2022-11-15T03:53:29;0.10;99.90
4279;DHT22;2153;47.744;10.580;2022-11-15T03:55:57;0.10;99.90
4279;DHT22;2153;47.744;10.580;2022-11-15T03:58:24;0.10;99.90
4279;DHT22;2153;47.744;10.580;2022-11-15T04:00:50;0.00;99.90
4279;DHT22;2153;47.744;10.580;2022-11-15T04:03:17;0.00;99.90
4279;DHT22;2153;47.744;10.580;2022-11-15T04:05:45;0.00;99.90
4279;DHT22;2153;47.744;10.580;2022-11-15T04:08:12;0.00;99.90
4279;DHT22;2153;47.744;10.580;2022-11-15T04:10:39;0.10;99.90
4279;DHT22;2153;47.744;10.580;2022-11-15T04:13:06;0.10;99.90
4279;DHT22;2153;47.744;10.580;2022-11-15T04:15:33;0.00;99.90
4279;DHT22;2153;47.744;10.580;2022-11-15T04:17:59;0.10;99.90
4279;DHT22;2153;47.744;10.580;2022-11-15T04:20:28;0.10;99.90
4279;DHT22;2153;47.744;10.580;2022-11-15T04:23:16;0.10;99.90
4279;DHT22;2153;47.744;10.580;2022-11-15T04:26:02;0.00;99.90
4279;DHT22;2153;47.744;10.580;2022-11-15T04:28:30;0.00;99.90
4279;DHT22;2153;47.744;10.580;2022-11-15T04:30:57;0.00;99.90
4279;DHT22;2153;47.744;10.580;2022-11-15T04:33:24;0.00;99.90
4279;DHT22;2153;47.744;10.580;2022-11-15T04:35:51;0.00;99.90
4279;DHT22;2153;47.744;10.580;2022-11-15T04:38:36;0.00;99.90
4279;DHT22;2153;47.744;10.580;2022-11-15T04:41:03;0.00;99.90
4279;DHT22;2153;47.744;10.580;2022-11-15T04:43:30;0.00;99.90
4279;DHT22;2153;47.744;10.580;2022-11-15T04:45:57;0.10;99.90
4279;DHT22;2153;47.744;10.580;2022-11-15T04:48:24;0.00;99.90
4279;DHT22;2153;47.744;10.580;2022-11-15T04:50:50;-0.20;99.90
4279;DHT22;2153;47.744;10.580;2022-11-15T04:53:17;-0.30;99.90
4279;DHT22;2153;47.744;10.580;2022-11-15T04:55:46;-0.30;99.90
4279;DHT22;2153;47.744;10.580;2022-11-15T04:58:13;-0.20;99.90
4279;DHT22;2153;47.744;10.580;2022-11-15T05:00:39;-0.20;99.90
4279;DHT22;2153;47.744;10.580;2022-11-15T05:03:08;-0.20;99.90
4279;DHT22;2153;47.744;10.580;2022-11-15T05:05:52;-0.20;99.90
4279;DHT22;2153;47.744;10.580;2022-11-15T05:08:19;-0.20;99.90
4279;DHT22;2153;47.744;10.580;2022-11-15T05:10:47;-0.10;99.90
4279;DHT22;2153;47.744;10.580;2022-11-15T05:13:14;-0.10;99.90
4279;DHT22;2153;47.744;10.580;2022-11-15T05:15:41;-0.10;99.90
4279;DHT22;2153;47.744;10.580;2022-11-15T05:18:08;0.00;99.90
4279;DHT22;2153;47.744;10.580;2022-11-15T05:20:35;0.00;99.90
4279;DHT22;2153;47.744;10.580;2022-11-15T05:23:01;-0.10;99.90
4279;DHT22;2153;47.744;10.580;2022-11-15T05:25:28;-0.20;99.90
4279;DHT22;2153;47.744;10.580;2022-11-15T05:27:56;-0.20;99.90
4279;DHT22;2153;47.744;10.580;2022-11-15T05:30:23;-0.20;99.90
4279;DHT22;2153;47.744;10.580;2022-11-15T05:32:50;-0.20;99.90
4279;DHT22;2153;47.744;10.580;2022-11-15T05:35:21;-0.20;99.90
4279;DHT22;2153;47.744;10.580;2022-11-15T05:37:52;-0.20;99.90
4279;DHT22;2153;47.744;10.580;2022-11-15T05:40:19;-0.20;99.90
4279;DHT22;2153;47.744;10.580;2022-11-15T05:42:46;-0.20;99.90
4279;DHT22;2153;47.744;10.580;2022-11-15T05:45:14;-0.30;99.90
4279;DHT22;2153;47.744;10.580;2022-11-15T05:47:42;-0.40;99.90
4279;DHT22;2153;47.744;10.580;2022-11-15T05:50:11;-0.30;99.90
4279;DHT22;2153;47.744;10.580;2022-11-15T05:52:38;-0.20;99.90
4279;DHT22;2153;47.744;10.580;2022-11-15T05:55:07;-0.20;99.90
4279;DHT22;2153;47.744;10.580;2022-11-15T05:57:35;-0.20;99.90
4279;DHT22;2153;47.744;10.580;2022-11-15T06:00:03;-0.20;99.90
4279;DHT22;2153;47.744;10.580;2022-11-15T06:02:32;-0.20;99.90
4279;DHT22;2153;47.744;10.580;2022-11-15T06:04:58;-0.20;99.90
4279;DHT22;2153;47.744;10.580;2022-11-15T06:07:25;-0.20;99.90
4279;DHT22;2153;47.744;10.580;2022-11-15T06:09:52;-0.20;99.90
4279;DHT22;2153;47.744;10.580;2022-11-15T06:12:19;-0.20;99.90
4279;DHT22;2153;47.744;10.580;2022-11-15T06:14:45;-0.30;99.90
4279;DHT22;2153;47.744;10.580;2022-11-15T06:17:12;-0.30;99.90
4279;DHT22;2153;47.744;10.580;2022-11-15T06:19:40;-0.30;99.90
4279;DHT22;2153;47.744;10.580;2022-11-15T06:22:07;-0.40;99.90
4279;DHT22;2153;47.744;10.580;2022-11-15T06:24:34;-0.40;99.90
4279;DHT22;2153;47.744;10.580;2022-11-15T06:27:01;-0.30;99.90
4279;DHT22;2153;47.744;10.580;2022-11-15T06:29:28;-0.30;99.90
4279;DHT22;2153;47.744;10.580;2022-11-15T06:31:55;-0.20;99.90
4279;DHT22;2153;47.744;10.580;2022-11-15T06:34:21;-0.20;99.90
4279;DHT22;2153;47.744;10.580;2022-11-15T06:36:50;-0.30;99.90
4279;DHT22;2153;47.744;10.580;2022-11-15T06:39:16;-0.40;99.90
4279;DHT22;2153;47.744;10.580;2022-11-15T06:41:43;-0.50;99.90
4279;DHT22;2153;47.744;10.580;2022-11-15T06:44:10;-0.50;99.90
4279;DHT22;2153;47.744;10.580;2022-11-15T06:46:37;-0.40;99.90
4279;DHT22;2153;47.744;10.580;2022-11-15T06:49:03;-0.10;99.90
4279;DHT22;2153;47.744;10.580;2022-11-15T06:51:30;0.20;99.90
4279;DHT22;2153;47.744;10.580;2022-11-15T06:53:58;0.50;99.90
4279;DHT22;2153;47.744;10.580;2022-11-15T06:56:25;0.90;99.90
4279;DHT22;2153;47.744;10.580;2022-11-15T06:58:52;1.20;99.90
4279;DHT22;2153;47.744;10.580;2022-11-15T07:01:19;1.50;99.90
4279;DHT22;2153;47.744;10.580;2022-11-15T07:03:45;1.70;99.90
4279;DHT22;2153;47.744;10.580;2022-11-15T07:06:12;1.80;99.90
4279;DHT22;2153;47.744;10.580;2022-11-15T07:08:39;1.90;99.90
4279;DHT22;2153;47.744;10.580;2022-11-15T07:11:08;2.10;99.90
4279;DHT22;2153;47.744;10.580;2022-11-15T07:13:36;2.30;99.90
4279;DHT22;2153;47.744;10.580;2022-11-15T07:16:04;2.60;99.90
4279;DHT22;2153;47.744;10.580;2022-11-15T07:18:33;2.70;99.90
4279;DHT22;2153;47.744;10.580;2022-11-15T07:21:01;2.90;99.90
4279;DHT22;2153;47.744;10.580;2022-11-15T07:23:28;3.00;99.90
4279;DHT22;2153;47.744;10.580;2022-11-15T07:25:56;3.20;99.90
4279;DHT22;2153;47.744;10.580;2022-11-15T07:28:25;3.40;99.90
4279;DHT22;2153;47.744;10.580;2022-11-15T07:30:52;3.90;99.90
4279;DHT22;2153;47.744;10.580;2022-11-15T07:33:19;4.10;99.90
4279;DHT22;2153;47.744;10.580;2022-11-15T07:35:45;4.40;99.90
4279;DHT22;2153;47.744;10.580;2022-11-15T07:38:14;4.70;99.90
4279;DHT22;2153;47.744;10.580;2022-11-15T07:40:41;5.00;99.90
4279;DHT22;2153;47.744;10.580;2022-11-15T07:43:08;5.30;99.90
4279;DHT22;2153;47.744;10.580;2022-11-15T07:45:42;5.60;99.90
4279;DHT22;2153;47.744;10.580;2022-11-15T07:48:09;5.90;99.90
4279;DHT22;2153;47.744;10.580;2022-11-15T07:50:36;6.20;99.90
4279;DHT22;2153;47.744;10.580;2022-11-15T07:53:02;6.60;99.90
4279;DHT22;2153;47.744;10.580;2022-11-15T07:55:29;7.00;99.90
4279;DHT22;2153;47.744;10.580;2022-11-15T07:58:00;7.30;99.90
4279;DHT22;2153;47.744;10.580;2022-11-15T08:00:28;8.10;99.90
4279;DHT22;2153;47.744;10.580;2022-11-15T08:03:02;8.30;99.90
4279;DHT22;2153;47.744;10.580;2022-11-15T08:05:29;8.60;99.90
4279;DHT22;2153;47.744;10.580;2022-11-15T08:07:57;8.80;99.90
4279;DHT22;2153;47.744;10.580;2022-11-15T08:10:24;8.50;99.90
4279;DHT22;2153;47.744;10.580;2022-11-15T08:12:57;8.60;99.90
4279;DHT22;2153;47.744;10.580;2022-11-15T08:15:24;8.60;99.90
4279;DHT22;2153;47.744;10.580;2022-11-15T08:17:53;8.70;99.90
4279;DHT22;2153;47.744;10.580;2022-11-15T08:20:22;8.90;99.90
4279;DHT22;2153;47.744;10.580;2022-11-15T08:22:49;9.50;99.90
4279;DHT22;2153;47.744;10.580;2022-11-15T08:25:16;9.70;99.90
4279;DHT22;2153;47.744;10.580;2022-11-15T08:27:43;10.20;99.90
4279;DHT22;2153;47.744;10.580;2022-11-15T08:30:11;10.50;99.90
4279;DHT22;2153;47.744;10.580;2022-11-15T08:32:37;11.30;99.90
4279;DHT22;2153;47.744;10.580;2022-11-15T08:35:05;11.90;99.90
4279;DHT22;2153;47.744;10.580;2022-11-15T08:37:33;12.00;99.90
4279;DHT22;2153;47.744;10.580;2022-11-15T08:40:00;12.70;99.90
4279;DHT22;2153;47.744;10.580;2022-11-15T08:42:27;13.00;99.90
4279;DHT22;2153;47.744;10.580;2022-11-15T08:44:54;13.20;99.90
4279;DHT22;2153;47.744;10.580;2022-11-15T08:47:21;13.40;99.90
4279;DHT22;2153;47.744;10.580;2022-11-15T08:49:47;13.50;99.90
4279;DHT22;2153;47.744;10.580;2022-11-15T08:52:14;13.70;99.90
4279;DHT22;2153;47.744;10.580;2022-11-15T08:54:42;13.90;99.90
4279;DHT22;2153;47.744;10.580;2022-11-15T08:57:09;14.40;99.90
4279;DHT22;2153;47.744;10.580;2022-11-15T08:59:36;14.60;99.90
4279;DHT22;2153;47.744;10.580;2022-11-15T09:02:04;14.80;99.90
4279;DHT22;2153;47.744;10.580;2022-11-15T09:04:31;14.50;99.90
4279;DHT22;2153;47.744;10.580;2022-11-15T09:06:57;14.60;99.90
4279;DHT22;2153;47.744;10.580;2022-11-15T09:09:24;15.30;99.90
4279;DHT22;2153;47.744;10.580;2022-11-15T09:11:52;15.20;99.90
4279;DHT22;2153;47.744;10.580;2022-11-15T09:14:19;15.70;99.90
4279;DHT22;2153;47.744;10.580;2022-11-15T09:16:46;15.90;99.90
4279;DHT22;2153;47.744;10.580;2022-11-15T09:19:13;16.30;99.90
4279;DHT22;2153;47.744;10.580;2022-11-15T09:21:40;16.80;99.90
4279;DHT22;2153;47.744;10.580;2022-11-15T09:24:07;16.30;99.90
4279;DHT22;2153;47.744;10.580;2022-11-15T09:26:34;16.20;99.90
4279;DHT22;2153;47.744;10.580;2022-11-15T09:29:02;16.50;99.90
4279;DHT22;2153;47.744;10.580;2022-11-15T09:31:29;16.80;99.90
4279;DHT22;2153;47.744;10.580;2022-11-15T09:33:57;16.80;94.10
4279;DHT22;2153;47.744;10.580;2022-11-15T09:36:24;16.80;99.90
4279;DHT22;2153;47.744;10.580;2022-11-15T09:38:50;17.50;99.90
4279;DHT22;2153;47.744;10.580;2022-11-15T09:41:31;17.50;99.90
4279;DHT22;2153;47.744;10.580;2022-11-15T09:44:11;17.30;99.90
4279;DHT22;2153;47.744;10.580;2022-11-15T09:46:54;17.70;99.90
4279;DHT22;2153;47.744;10.580;2022-11-15T09:49:25;17.50;99.90
4279;DHT22;2153;47.744;10.580;2022-11-15T09:51:53;17.40;99.90
4279;DHT22;2153;47.744;10.580;2022-11-15T09:54:28;17.40;99.90
4279;DHT22;2153;47.744;10.580;2022-11-15T09:56:56;17.50;99.90
4279;DHT22;2153;47.744;10.580;2022-11-15T09:59:45;17.70;99.90
4279;DHT22;2153;47.744;10.580;2022-11-15T10:02:33;17.70;99.20
4279;DHT22;2153;47.744;10.580;2022-11-15T10:05:04;17.30;95.60
4279;DHT22;2153;47.744;10.580;2022-11-15T10:07:40;17.60;98.80
4279;DHT22;2153;47.744;10.580;2022-11-15T10:10:15;17.70;87.00
4279;DHT22;2153;47.744;10.580;2022-11-15T10:12:47;17.30;99.30
4279;DHT22;2153;47.744;10.580;2022-11-15T10:15:17;17.80;73.00
4279;DHT22;2153;47.744;10.580;2022-11-15T10:18:13;17.30;75.10
4279;DHT22;2153;47.744;10.580;2022-11-15T10:20:52;17.60;85.20
4279;DHT22;2153;47.744;10.580;2022-11-15T10:23:21;17.80;70.50
4279;DHT22;2153;47.744;10.580;2022-11-15T10:25:51;17.40;90.00
4279;DHT22;2153;47.744;10.580;2022-11-15T10:28:22;17.50;66.50
4279;DHT22;2153;47.744;10.580;2022-11-15T10:30:54;17.20;57.00
4279;DHT22;2153;47.744;10.580;2022-11-15T10:33:27;17.20;80.70
4279;DHT22;2153;47.744;10.580;2022-11-15T10:36:20;17.50;74.30
4279;DHT22;2153;47.744;10.580;2022-11-15T10:38:55;17.70;77.40
4279;DHT22;2153;47.744;10.580;2022-11-15T10:41:30;17.80;81.50
4279;DHT22;2153;47.744;10.580;2022-11-15T10:44:19;17.70;85.30
4279;DHT22;2153;47.744;10.580;2022-11-15T10:49:53;17.00;49.40
4279;DHT22;2153;47.744;10.580;2022-11-15T10:52:20;16.80;71.20
4279;DHT22;2153;47.744;10.580;2022-11-15T10:54:49;16.90;84.20
4279;DHT22;2153;47.744;10.580;2022-11-15T10:57:20;17.10;93.70
4279;DHT22;2153;47.744;10.580;2022-11-15T10:59:51;17.10;93.50
4279;DHT22;2153;47.744;10.580;2022-11-15T11:02:31;17.00;90.90
4279;DHT22;2153;47.744;10.580;2022-11-15T11:04:59;16.90;87.30
4279;DHT22;2153;47.744;10.580;2022-11-15T11:07:27;16.90;97.00
4279;DHT22;2153;47.744;10.580;2022-11-15T11:10:00;17.00;97.70
4279;DHT22;2153;47.744;10.580;2022-11-15T11:12:29;17.00;99.60
4279;DHT22;2153;47.744;10.580;2022-11-15T11:14:58;16.70;96.40
4279;DHT22;2153;47.744;10.580;2022-11-15T11:17:34;16.80;99.90
4279;DHT22;2153;47.744;10.580;2022-11-15T11:20:10;16.70;99.90
4279;DHT22;2153;47.744;10.580;2022-11-15T11:22:41;16.80;97.10
4279;DHT22;2153;47.744;10.580;2022-11-15T11:25:19;16.70;97.40
4279;DHT22;2153;47.744;10.580;2022-11-15T11:28:02;16.50;97.60
4279;DHT22;2153;47.744;10.580;2022-11-15T11:30:41;16.50;99.90
4279;DHT22;2153;47.744;10.580;2022-11-15T11:33:16;16.60;99.90
4279;DHT22;2153;47.744;10.580;2022-11-15T11:35:54;16.70;99.90
4279;DHT22;2153;47.744;10.580;2022-11-15T11:38:35;16.10;99.90
4279;DHT22;2153;47.744;10.580;2022-11-15T11:41:10;16.30;91.90
4279;DHT22;2153;47.744;10.580;2022-11-15T11:43:48;16.10;93.60
4279;DHT22;2153;47.744;10.580;2022-11-15T11:46:43;16.10;99.90
4279;DHT22;2153;47.744;10.580;2022-11-15T11:49:18;16.20;99.90
4279;DHT22;2153;47.744;10.580;2022-11-15T11:51:49;16.10;99.90
4279;DHT22;2153;47.744;10.580;2022-11-15T11:54:23;16.00;99.90
4279;DHT22;2153;47.744;10.580;2022-11-15T11:56:53;16.00;99.90
4279;DHT22;2153;47.744;10.580;2022-11-15T11:59:31;16.30;99.90
4279;DHT22;2153;47.744;10.580;2022-11-15T12:02:07;16.30;99.90
4279;DHT22;2153;47.744;10.580;2022-11-15T12:04:39;16.40;99.90
4279;DHT22;2153;47.744;10.580;2022-11-15T12:07:11;16.50;99.90
4279;DHT22;2153;47.744;10.580;2022-11-15T12:09:44;16.70;99.90
4279;DHT22;2153;47.744;10.580;2022-11-15T12:12:17;16.90;99.90
4279;DHT22;2153;47.744;10.580;2022-11-15T12:14:47;16.90;99.90
4279;DHT22;2153;47.744;10.580;2022-11-15T12:17:17;16.70;99.90
4279;DHT22;2153;47.744;10.580;2022-11-15T12:19:48;16.60;98.10
4279;DHT22;2153;47.744;10.580;2022-11-15T12:22:20;16.50;99.10
4279;DHT22;2153;47.744;10.580;2022-11-15T12:24:52;16.60;99.90
4279;DHT22;2153;47.744;10.580;2022-11-15T12:27:32;16.50;99.90
4279;DHT22;2153;47.744;10.580;2022-11-15T12:30:04;16.30;99.90
4279;DHT22;2153;47.744;10.580;2022-11-15T12:32:37;16.10;99.90
4279;DHT22;2153;47.744;10.580;2022-11-15T12:35:24;15.90;99.90
4279;DHT22;2153;47.744;10.580;2022-11-15T12:37:52;15.70;99.90
4279;DHT22;2153;47.744;10.580;2022-11-15T12:40:33;15.40;99.90
4279;DHT22;2153;47.744;10.580;2022-11-15T12:45:53;14.90;99.90
4279;DHT22;2153;47.744;10.580;2022-11-15T12:55:01;14.50;99.90
4279;DHT22;2153;47.744;10.580;2022-11-15T12:57:42;14.40;99.90
4279;DHT22;2153;47.744;10.580;2022-11-15T13:00:42;14.30;99.90
4279;DHT22;2153;47.744;10.580;2022-11-15T13:03:22;14.10;99.90
4279;DHT22;2153;47.744;10.580;2022-11-15T13:06:08;13.90;99.90
4279;DHT22;2153;47.744;10.580;2022-11-15T13:08:41;13.70;99.90
4279;DHT22;2153;47.744;10.580;2022-11-15T13:14:49;13.30;99.90
4279;DHT22;2153;47.744;10.580;2022-11-15T13:17:36;13.40;99.90
4279;DHT22;2153;47.744;10.580;2022-11-15T13:20:18;13.50;99.90
4279;DHT22;2153;47.744;10.580;2022-11-15T13:22:47;13.40;99.90
4279;DHT22;2153;47.744;10.580;2022-11-15T13:25:21;13.30;99.90
4279;DHT22;2153;47.744;10.580;2022-11-15T13:27:51;13.20;99.90
4279;DHT22;2153;47.744;10.580;2022-11-15T13:30:22;13.10;99.90
4279;DHT22;2153;47.744;10.580;2022-11-15T13:32:50;12.80;99.90
4279;DHT22;2153;47.744;10.580;2022-11-15T13:35:22;12.80;99.90
4279;DHT22;2153;47.744;10.580;2022-11-15T13:37:50;12.70;99.90
4279;DHT22;2153;47.744;10.580;2022-11-15T13:40:24;12.70;99.90
4279;DHT22;2153;47.744;10.580;2022-11-15T13:42:53;12.70;99.90
4279;DHT22;2153;47.744;10.580;2022-11-15T13:45:22;12.70;99.90
4279;DHT22;2153;47.744;10.580;2022-11-15T13:47:54;12.70;99.90
4279;DHT22;2153;47.744;10.580;2022-11-15T13:50:23;12.70;99.90
4279;DHT22;2153;47.744;10.580;2022-11-15T13:52:52;12.70;99.90
4279;DHT22;2153;47.744;10.580;2022-11-15T13:55:21;12.70;99.90
4279;DHT22;2153;47.744;10.580;2022-11-15T13:57:50;12.60;99.90
4279;DHT22;2153;47.744;10.580;2022-11-15T14:00:33;12.60;99.90
4279;DHT22;2153;47.744;10.580;2022-11-15T14:03:12;12.50;99.90
4279;DHT22;2153;47.744;10.580;2022-11-15T14:05:42;12.40;99.90
4279;DHT22;2153;47.744;10.580;2022-11-15T14:08:22;12.30;99.90
4279;DHT22;2153;47.744;10.580;2022-11-15T14:11:08;12.20;99.90
4279;DHT22;2153;47.744;10.580;2022-11-15T14:13:36;12.00;99.90
4279;DHT22;2153;47.744;10.580;2022-11-15T14:16:15;12.00;99.90
4279;DHT22;2153;47.744;10.580;2022-11-15T14:18:45;11.90;99.90
4279;DHT22;2153;47.744;10.580;2022-11-15T14:21:13;11.90;99.90
4279;DHT22;2153;47.744;10.580;2022-11-15T14:23:39;11.80;99.90
4279;DHT22;2153;47.744;10.580;2022-11-15T14:26:25;11.70;99.90
4279;DHT22;2153;47.744;10.580;2022-11-15T14:28:52;11.60;99.90
4279;DHT22;2153;47.744;10.580;2022-11-15T14:31:21;11.50;99.90
4279;DHT22;2153;47.744;10.580;2022-11-15T14:33:49;11.40;99.90
4279;DHT22;2153;47.744;10.580;2022-11-15T14:36:20;11.30;99.90
4279;DHT22;2153;47.744;10.580;2022-11-15T14:38:48;11.30;99.90
4279;DHT22;2153;47.744;10.580;2022-11-15T14:41:20;11.30;99.90
4279;DHT22;2153;47.744;10.580;2022-11-15T14:43:47;11.30;99.90
4279;DHT22;2153;47.744;10.580;2022-11-15T14:46:13;11.30;99.90
4279;DHT22;2153;47.744;10.580;2022-11-15T14:48:42;11.20;99.90
4279;DHT22;2153;47.744;10.580;2022-11-15T14:51:12;11.20;99.90
4279;DHT22;2153;47.744;10.580;2022-11-15T14:53:39;11.20;99.90
4279;DHT22;2153;47.744;10.580;2022-11-15T14:56:06;11.20;99.90
4279;DHT22;2153;47.744;10.580;2022-11-15T14:58:33;11.20;99.90
4279;DHT22;2153;47.744;10.580;2022-11-15T15:01:02;11.20;99.90
4279;DHT22;2153;47.744;10.580;2022-11-15T15:03:29;11.20;99.90
4279;DHT22;2153;47.744;10.580;2022-11-15T15:05:57;11.10;99.90
4279;DHT22;2153;47.744;10.580;2022-11-15T15:08:24;11.10;99.90
4279;DHT22;2153;47.744;10.580;2022-11-15T15:10:51;11.00;99.90
4279;DHT22;2153;47.744;10.580;2022-11-15T15:13:19;11.00;99.90
4279;DHT22;2153;47.744;10.580;2022-11-15T15:15:47;11.00;99.90
4279;DHT22;2153;47.744;10.580;2022-11-15T15:18:14;11.00;99.90
4279;DHT22;2153;47.744;10.580;2022-11-15T15:20:43;10.90;99.90
4279;DHT22;2153;47.744;10.580;2022-11-15T15:23:16;10.80;99.90
4279;DHT22;2153;47.744;10.580;2022-11-15T15:25:43;10.70;99.90
4279;DHT22;2153;47.744;10.580;2022-11-15T15:28:10;10.60;99.90
4279;DHT22;2153;47.744;10.580;2022-11-15T15:30:37;10.50;99.90
4279;DHT22;2153;47.744;10.580;2022-11-15T15:33:04;10.40;99.90
4279;DHT22;2153;47.744;10.580;2022-11-15T15:35:33;10.30;99.90
4279;DHT22;2153;47.744;10.580;2022-11-15T15:38:00;10.20;99.90
4279;DHT22;2153;47.744;10.580;2022-11-15T15:40:31;10.00;99.90
4279;DHT22;2153;47.744;10.580;2022-11-15T15:42:58;9.90;99.90
4279;DHT22;2153;47.744;10.580;2022-11-15T15:45:25;9.80;99.90
4279;DHT22;2153;47.744;10.580;2022-11-15T15:47:52;9.80;99.90
4279;DHT22;2153;47.744;10.580;2022-11-15T15:50:25;9.80;99.90
4279;DHT22;2153;47.744;10.580;2022-11-15T15:52:54;9.70;99.90
4279;DHT22;2153;47.744;10.580;2022-11-15T15:55:21;9.60;99.90
4279;DHT22;2153;47.744;10.580;2022-11-15T15:57:50;9.50;99.90
4279;DHT22;2153;47.744;10.580;2022-11-15T16:00:18;9.40;99.90
4279;DHT22;2153;47.744;10.580;2022-11-15T16:02:45;9.30;99.90
4279;DHT22;2153;47.744;10.580;2022-11-15T16:05:12;9.20;99.90
4279;DHT22;2153;47.744;10.580;2022-11-15T16:07:40;9.20;99.90
4279;DHT22;2153;47.744;10.580;2022-11-15T16:10:18;9.20;99.90
4279;DHT22;2153;47.744;10.580;2022-11-15T16:12:45;9.20;99.90
4279;DHT22;2153;47.744;10.580;2022-11-15T16:15:13;9.20;99.90
4279;DHT22;2153;47.744;10.580;2022-11-15T16:17:43;9.30;99.90
4279;DHT22;2153;47.744;10.580;2022-11-15T16:20:30;9.30;99.90
4279;DHT22;2153;47.744;10.580;2022-11-15T16:22:57;9.30;99.90
4279;DHT22;2153;47.744;10.580;2022-11-15T16:25:25;9.30;99.90
4279;DHT22;2153;47.744;10.580;2022-11-15T16:27:52;9.20;99.90
4279;DHT22;2153;47.744;10.580;2022-11-15T16:30:21;8.90;99.90
4279;DHT22;2153;47.744;10.580;2022-11-15T16:32:48;8.80;99.90